sensor_id;sensor_type;location;lat;lon;timestamp;P1;durP1;ratioP1;P2;durP2;ratioP2
18334;SDS011;9293;49.524;10.964;2023-03-01T00:01:41;23.55;;;14.40;;
18334;SDS011;9293;49.524;10.964;2023-03-01T00:04:09;21.10;;;14.32;;
18334;SDS011;9293;49.524;10.964;2023-03-01T00:06:37;19.70;;;13.32;;
18334;SDS011;9293;49.524;10.964;2023-03-01T00:09:05;23.40;;;14.73;;
18334;SDS011;9293;49.524;10.964;2023-03-01T00:11:33;25.02;;;15.15;;
18334;SDS011;9293;49.524;10.964;2023-03-01T00:14:01;25.55;;;14.98;;
18334;SDS011;9293;49.524;10.964;2023-03-01T00:16:34;22.02;;;14.48;;
18334;SDS011;9293;49.524;10.964;2023-03-01T00:19:08;23.13;;;15.15;;
18334;SDS011;9293;49.524;10.964;2023-03-01T00:21:39;21.42;;;14.65;;
18334;SDS011;9293;49.524;10.964;2023-03-01T00:24:08;21.98;;;14.57;;
18334;SDS011;9293;49.524;10.964;2023-03-01T00:26:36;23.23;;;14.27;;
18334;SDS011;9293;49.524;10.964;2023-03-01T00:29:05;20.75;;;14.00;;
18334;SDS011;9293;49.524;10.964;2023-03-01T00:31:33;26.58;;;14.90;;
18334;SDS011;9293;49.524;10.964;2023-03-01T00:34:03;25.48;;;14.27;;
18334;SDS011;9293;49.524;10.964;2023-03-01T00:36:33;22.77;;;14.75;;
18334;SDS011;9293;49.524;10.964;2023-03-01T00:39:05;25.25;;;15.07;;
18334;SDS011;9293;49.524;10.964;2023-03-01T00:41:35;21.20;;;14.38;;
18334;SDS011;9293;49.524;10.964;2023-03-01T00:44:03;27.55;;;16.98;;
18334;SDS011;9293;49.524;10.964;2023-03-01T00:46:31;22.05;;;14.95;;
18334;SDS011;9293;49.524;10.964;2023-03-01T00:48:59;26.02;;;16.27;;
18334;SDS011;9293;49.524;10.964;2023-03-01T00:51:29;24.02;;;14.88;;
18334;SDS011;9293;49.524;10.964;2023-03-01T00:53:59;23.52;;;15.15;;
18334;SDS011;9293;49.524;10.964;2023-03-01T00:56:30;23.85;;;15.30;;
18334;SDS011;9293;49.524;10.964;2023-03-01T00:59:02;25.10;;;15.20;;
18334;SDS011;9293;49.524;10.964;2023-03-01T01:01:30;23.02;;;14.88;;
18334;SDS011;9293;49.524;10.964;2023-03-01T01:04:09;24.27;;;15.38;;
18334;SDS011;9293;49.524;10.964;2023-03-01T01:06:40;22.45;;;14.57;;
18334;SDS011;9293;49.524;10.964;2023-03-01T01:11:45;23.02;;;15.05;;
18334;SDS011;9293;49.524;10.964;2023-03-01T01:14:14;26.75;;;15.20;;
18334;SDS011;9293;49.524;10.964;2023-03-01T01:16:43;23.05;;;14.77;;
18334;SDS011;9293;49.524;10.964;2023-03-01T01:19:11;25.40;;;15.88;;
18334;SDS011;9293;49.524;10.964;2023-03-01T01:21:40;24.40;;;15.02;;
18334;SDS011;9293;49.524;10.964;2023-03-01T01:24:11;21.75;;;14.75;;
18334;SDS011;9293;49.524;10.964;2023-03-01T01:26:39;20.75;;;14.05;;
18334;SDS011;9293;49.524;10.964;2023-03-01T01:29:08;23.55;;;14.52;;
18334;SDS011;9293;49.524;10.964;2023-03-01T01:31:37;24.77;;;15.85;;
18334;SDS011;9293;49.524;10.964;2023-03-01T01:34:06;23.33;;;15.15;;
18334;SDS011;9293;49.524;10.964;2023-03-01T01:36:36;23.42;;;14.82;;
18334;SDS011;9293;49.524;10.964;2023-03-01T01:39:04;22.08;;;14.13;;
18334;SDS011;9293;49.524;10.964;2023-03-01T01:41:32;27.67;;;15.90;;
18334;SDS011;9293;49.524;10.964;2023-03-01T01:47:01;25.08;;;14.65;;
18334;SDS011;9293;49.524;10.964;2023-03-01T01:49:51;22.73;;;14.52;;
18334;SDS011;9293;49.524;10.964;2023-03-01T01:55:00;22.27;;;14.60;;
18334;SDS011;9293;49.524;10.964;2023-03-01T01:57:39;24.27;;;15.30;;
18334;SDS011;9293;49.524;10.964;2023-03-01T02:00:19;19.88;;;14.45;;
18334;SDS011;9293;49.524;10.964;2023-03-01T02:02:49;23.60;;;15.40;;
18334;SDS011;9293;49.524;10.964;2023-03-01T02:05:46;28.38;;;16.85;;
18334;SDS011;9293;49.524;10.964;2023-03-01T02:08:32;23.50;;;15.15;;
18334;SDS011;9293;49.524;10.964;2023-03-01T02:11:04;24.92;;;15.55;;
18334;SDS011;9293;49.524;10.964;2023-03-01T02:13:33;27.35;;;16.20;;
18334;SDS011;9293;49.524;10.964;2023-03-01T02:16:05;28.85;;;16.27;;
18334;SDS011;9293;49.524;10.964;2023-03-01T02:18:39;20.33;;;14.18;;
18334;SDS011;9293;49.524;10.964;2023-03-01T02:27:16;24.00;;;15.00;;
18334;SDS011;9293;49.524;10.964;2023-03-01T02:29:49;24.02;;;14.63;;
18334;SDS011;9293;49.524;10.964;2023-03-01T02:32:17;23.63;;;15.43;;
18334;SDS011;9293;49.524;10.964;2023-03-01T02:34:53;26.38;;;16.40;;
18334;SDS011;9293;49.524;10.964;2023-03-01T02:37:22;24.40;;;14.73;;
18334;SDS011;9293;49.524;10.964;2023-03-01T02:39:58;28.00;;;15.40;;
18334;SDS011;9293;49.524;10.964;2023-03-01T02:42:36;26.10;;;16.42;;
18334;SDS011;9293;49.524;10.964;2023-03-01T02:45:14;26.27;;;15.02;;
18334;SDS011;9293;49.524;10.964;2023-03-01T02:47:42;25.90;;;15.88;;
18334;SDS011;9293;49.524;10.964;2023-03-01T02:55:31;25.17;;;14.85;;
18334;SDS011;9293;49.524;10.964;2023-03-01T02:58:00;28.52;;;15.30;;
18334;SDS011;9293;49.524;10.964;2023-03-01T03:00:34;24.70;;;15.55;;
18334;SDS011;9293;49.524;10.964;2023-03-01T03:03:07;23.60;;;14.45;;
18334;SDS011;9293;49.524;10.964;2023-03-01T03:05:36;24.55;;;15.48;;
18334;SDS011;9293;49.524;10.964;2023-03-01T03:08:05;24.80;;;15.98;;
18334;SDS011;9293;49.524;10.964;2023-03-01T03:10:37;23.65;;;15.43;;
18334;SDS011;9293;49.524;10.964;2023-03-01T03:13:11;24.50;;;15.45;;
18334;SDS011;9293;49.524;10.964;2023-03-01T03:15:42;25.83;;;16.50;;
18334;SDS011;9293;49.524;10.964;2023-03-01T03:18:12;23.33;;;15.43;;
18334;SDS011;9293;49.524;10.964;2023-03-01T03:20:42;25.80;;;15.18;;
18334;SDS011;9293;49.524;10.964;2023-03-01T03:23:11;28.05;;;16.27;;
18334;SDS011;9293;49.524;10.964;2023-03-01T03:25:39;22.83;;;15.48;;
18334;SDS011;9293;49.524;10.964;2023-03-01T03:28:07;27.27;;;15.88;;
18334;SDS011;9293;49.524;10.964;2023-03-01T03:30:39;24.88;;;15.63;;
18334;SDS011;9293;49.524;10.964;2023-03-01T03:33:08;24.92;;;15.48;;
18334;SDS011;9293;49.524;10.964;2023-03-01T03:35:45;25.98;;;15.10;;
18334;SDS011;9293;49.524;10.964;2023-03-01T03:38:18;24.50;;;14.85;;
18334;SDS011;9293;49.524;10.964;2023-03-01T03:40:59;24.52;;;15.18;;
18334;SDS011;9293;49.524;10.964;2023-03-01T03:43:30;23.55;;;14.80;;
18334;SDS011;9293;49.524;10.964;2023-03-01T03:46:00;25.67;;;16.08;;
18334;SDS011;9293;49.524;10.964;2023-03-01T03:48:33;24.13;;;15.73;;
18334;SDS011;9293;49.524;10.964;2023-03-01T03:51:03;24.03;;;15.23;;
18334;SDS011;9293;49.524;10.964;2023-03-01T03:53:34;23.77;;;14.88;;
18334;SDS011;9293;49.524;10.964;2023-03-01T03:56:02;26.35;;;14.93;;
18334;SDS011;9293;49.524;10.964;2023-03-01T03:58:31;22.90;;;15.10;;
18334;SDS011;9293;49.524;10.964;2023-03-01T04:01:00;23.83;;;14.75;;
18334;SDS011;9293;49.524;10.964;2023-03-01T04:03:31;23.20;;;14.70;;
18334;SDS011;9293;49.524;10.964;2023-03-01T04:06:00;25.58;;;15.80;;
18334;SDS011;9293;49.524;10.964;2023-03-01T04:08:28;24.25;;;15.55;;
18334;SDS011;9293;49.524;10.964;2023-03-01T04:10:58;24.48;;;14.77;;
18334;SDS011;9293;49.524;10.964;2023-03-01T04:13:50;25.45;;;15.18;;
18334;SDS011;9293;49.524;10.964;2023-03-01T04:16:19;25.95;;;15.55;;
18334;SDS011;9293;49.524;10.964;2023-03-01T04:18:48;22.45;;;14.95;;
18334;SDS011;9293;49.524;10.964;2023-03-01T04:21:16;24.80;;;15.73;;
18334;SDS011;9293;49.524;10.964;2023-03-01T04:23:44;23.27;;;15.23;;
18334;SDS011;9293;49.524;10.964;2023-03-01T04:26:12;24.50;;;15.82;;
18334;SDS011;9293;49.524;10.964;2023-03-01T04:28:41;27.40;;;15.70;;
18334;SDS011;9293;49.524;10.964;2023-03-01T04:31:14;22.77;;;15.25;;
18334;SDS011;9293;49.524;10.964;2023-03-01T04:33:45;27.48;;;17.10;;
18334;SDS011;9293;49.524;10.964;2023-03-01T04:36:19;25.25;;;16.33;;
18334;SDS011;9293;49.524;10.964;2023-03-01T04:38:48;24.90;;;15.00;;
18334;SDS011;9293;49.524;10.964;2023-03-01T04:41:17;23.38;;;14.85;;
18334;SDS011;9293;49.524;10.964;2023-03-01T04:43:47;28.07;;;15.53;;
18334;SDS011;9293;49.524;10.964;2023-03-01T04:46:17;22.70;;;15.25;;
18334;SDS011;9293;49.524;10.964;2023-03-01T04:48:47;24.23;;;14.88;;
18334;SDS011;9293;49.524;10.964;2023-03-01T04:51:15;24.77;;;14.73;;
18334;SDS011;9293;49.524;10.964;2023-03-01T04:53:44;27.60;;;15.05;;
18334;SDS011;9293;49.524;10.964;2023-03-01T04:56:12;21.90;;;13.88;;
18334;SDS011;9293;49.524;10.964;2023-03-01T04:58:45;22.58;;;14.57;;
18334;SDS011;9293;49.524;10.964;2023-03-01T05:01:14;24.65;;;15.52;;
18334;SDS011;9293;49.524;10.964;2023-03-01T05:03:45;26.30;;;15.05;;
18334;SDS011;9293;49.524;10.964;2023-03-01T05:06:14;21.90;;;14.43;;
18334;SDS011;9293;49.524;10.964;2023-03-01T05:08:44;25.17;;;15.47;;
18334;SDS011;9293;49.524;10.964;2023-03-01T05:11:12;25.38;;;14.93;;
18334;SDS011;9293;49.524;10.964;2023-03-01T05:13:44;23.02;;;15.52;;
18334;SDS011;9293;49.524;10.964;2023-03-01T05:16:15;25.25;;;15.90;;
18334;SDS011;9293;49.524;10.964;2023-03-01T05:18:45;25.23;;;16.20;;
18334;SDS011;9293;49.524;10.964;2023-03-01T05:21:16;26.58;;;15.65;;
18334;SDS011;9293;49.524;10.964;2023-03-01T05:23:44;26.08;;;16.08;;
18334;SDS011;9293;49.524;10.964;2023-03-01T05:26:14;28.33;;;16.67;;
18334;SDS011;9293;49.524;10.964;2023-03-01T05:28:54;23.67;;;15.07;;
18334;SDS011;9293;49.524;10.964;2023-03-01T05:31:26;23.02;;;15.25;;
18334;SDS011;9293;49.524;10.964;2023-03-01T05:33:54;23.08;;;15.60;;
18334;SDS011;9293;49.524;10.964;2023-03-01T05:36:22;23.45;;;15.50;;
18334;SDS011;9293;49.524;10.964;2023-03-01T05:38:50;27.40;;;16.30;;
18334;SDS011;9293;49.524;10.964;2023-03-01T05:41:19;26.83;;;16.10;;
18334;SDS011;9293;49.524;10.964;2023-03-01T05:43:47;25.08;;;16.35;;
18334;SDS011;9293;49.524;10.964;2023-03-01T05:46:16;24.25;;;16.23;;
18334;SDS011;9293;49.524;10.964;2023-03-01T05:48:43;24.50;;;16.35;;
18334;SDS011;9293;49.524;10.964;2023-03-01T05:51:11;24.33;;;15.50;;
18334;SDS011;9293;49.524;10.964;2023-03-01T05:53:39;27.35;;;16.58;;
18334;SDS011;9293;49.524;10.964;2023-03-01T05:56:07;26.05;;;15.70;;
18334;SDS011;9293;49.524;10.964;2023-03-01T05:58:35;30.10;;;16.50;;
18334;SDS011;9293;49.524;10.964;2023-03-01T06:01:10;27.17;;;17.07;;
18334;SDS011;9293;49.524;10.964;2023-03-01T06:03:40;32.67;;;18.23;;
18334;SDS011;9293;49.524;10.964;2023-03-01T06:06:08;29.67;;;19.25;;
18334;SDS011;9293;49.524;10.964;2023-03-01T06:08:36;28.10;;;18.33;;
18334;SDS011;9293;49.524;10.964;2023-03-01T06:11:04;30.23;;;19.10;;
18334;SDS011;9293;49.524;10.964;2023-03-01T06:13:34;31.02;;;19.02;;
18334;SDS011;9293;49.524;10.964;2023-03-01T06:16:05;31.98;;;18.88;;
18334;SDS011;9293;49.524;10.964;2023-03-01T06:18:36;28.60;;;18.48;;
18334;SDS011;9293;49.524;10.964;2023-03-01T06:21:08;28.90;;;18.48;;
18334;SDS011;9293;49.524;10.964;2023-03-01T06:23:39;24.58;;;16.48;;
18334;SDS011;9293;49.524;10.964;2023-03-01T06:26:07;27.90;;;16.90;;
18334;SDS011;9293;49.524;10.964;2023-03-01T06:28:37;24.20;;;16.38;;
18334;SDS011;9293;49.524;10.964;2023-03-01T06:31:05;27.60;;;16.85;;
18334;SDS011;9293;49.524;10.964;2023-03-01T06:33:35;25.65;;;16.98;;
18334;SDS011;9293;49.524;10.964;2023-03-01T06:36:04;26.42;;;16.67;;
18334;SDS011;9293;49.524;10.964;2023-03-01T06:38:32;26.50;;;17.15;;
18334;SDS011;9293;49.524;10.964;2023-03-01T06:41:01;25.42;;;16.38;;
18334;SDS011;9293;49.524;10.964;2023-03-01T06:43:29;27.83;;;16.25;;
18334;SDS011;9293;49.524;10.964;2023-03-01T06:45:57;28.17;;;16.70;;
18334;SDS011;9293;49.524;10.964;2023-03-01T06:48:25;26.38;;;16.92;;
18334;SDS011;9293;49.524;10.964;2023-03-01T06:50:53;28.27;;;16.88;;
18334;SDS011;9293;49.524;10.964;2023-03-01T06:53:21;34.55;;;21.05;;
18334;SDS011;9293;49.524;10.964;2023-03-01T06:55:56;29.90;;;19.52;;
18334;SDS011;9293;49.524;10.964;2023-03-01T06:58:24;31.33;;;21.08;;
18334;SDS011;9293;49.524;10.964;2023-03-01T07:00:56;28.00;;;18.27;;
18334;SDS011;9293;49.524;10.964;2023-03-01T07:03:29;31.08;;;18.50;;
18334;SDS011;9293;49.524;10.964;2023-03-01T07:05:55;27.98;;;18.27;;
18334;SDS011;9293;49.524;10.964;2023-03-01T07:08:23;29.08;;;18.52;;
18334;SDS011;9293;49.524;10.964;2023-03-01T07:10:57;26.73;;;18.35;;
18334;SDS011;9293;49.524;10.964;2023-03-01T07:13:25;24.52;;;17.50;;
18334;SDS011;9293;49.524;10.964;2023-03-01T07:15:53;26.35;;;16.45;;
18334;SDS011;9293;49.524;10.964;2023-03-01T07:18:22;24.20;;;16.75;;
18334;SDS011;9293;49.524;10.964;2023-03-01T07:20:50;24.75;;;16.10;;
18334;SDS011;9293;49.524;10.964;2023-03-01T07:23:18;24.52;;;16.60;;
18334;SDS011;9293;49.524;10.964;2023-03-01T07:25:53;24.65;;;15.68;;
18334;SDS011;9293;49.524;10.964;2023-03-01T07:28:22;26.83;;;16.83;;
18334;SDS011;9293;49.524;10.964;2023-03-01T07:31:02;24.25;;;16.33;;
18334;SDS011;9293;49.524;10.964;2023-03-01T07:33:34;21.15;;;15.70;;
18334;SDS011;9293;49.524;10.964;2023-03-01T07:36:04;24.35;;;16.35;;
18334;SDS011;9293;49.524;10.964;2023-03-01T07:38:34;22.45;;;16.27;;
18334;SDS011;9293;49.524;10.964;2023-03-01T07:41:03;21.60;;;15.88;;
18334;SDS011;9293;49.524;10.964;2023-03-01T07:43:31;25.60;;;16.35;;
18334;SDS011;9293;49.524;10.964;2023-03-01T07:46:00;22.48;;;15.80;;
18334;SDS011;9293;49.524;10.964;2023-03-01T07:48:29;22.35;;;15.85;;
18334;SDS011;9293;49.524;10.964;2023-03-01T07:51:01;23.77;;;15.57;;
18334;SDS011;9293;49.524;10.964;2023-03-01T07:53:35;21.30;;;15.00;;
18334;SDS011;9293;49.524;10.964;2023-03-01T07:56:06;19.02;;;15.27;;
18334;SDS011;9293;49.524;10.964;2023-03-01T07:58:42;19.55;;;15.27;;
18334;SDS011;9293;49.524;10.964;2023-03-01T08:01:12;18.63;;;15.68;;
18334;SDS011;9293;49.524;10.964;2023-03-01T08:03:41;19.80;;;15.17;;
18334;SDS011;9293;49.524;10.964;2023-03-01T08:06:11;18.08;;;14.95;;
18334;SDS011;9293;49.524;10.964;2023-03-01T08:08:43;20.50;;;15.68;;
18334;SDS011;9293;49.524;10.964;2023-03-01T08:11:12;19.88;;;15.32;;
18334;SDS011;9293;49.524;10.964;2023-03-01T08:13:46;21.30;;;15.18;;
18334;SDS011;9293;49.524;10.964;2023-03-01T08:16:19;19.30;;;15.38;;
18334;SDS011;9293;49.524;10.964;2023-03-01T08:18:47;21.55;;;15.68;;
18334;SDS011;9293;49.524;10.964;2023-03-01T08:21:16;20.83;;;15.90;;
18334;SDS011;9293;49.524;10.964;2023-03-01T08:23:45;18.10;;;14.20;;
18334;SDS011;9293;49.524;10.964;2023-03-01T08:26:14;18.48;;;14.45;;
18334;SDS011;9293;49.524;10.964;2023-03-01T08:28:59;19.90;;;14.60;;
18334;SDS011;9293;49.524;10.964;2023-03-01T08:31:35;20.42;;;15.13;;
18334;SDS011;9293;49.524;10.964;2023-03-01T08:34:08;19.73;;;15.50;;
18334;SDS011;9293;49.524;10.964;2023-03-01T08:36:40;21.98;;;15.90;;
18334;SDS011;9293;49.524;10.964;2023-03-01T08:39:10;19.45;;;15.77;;
18334;SDS011;9293;49.524;10.964;2023-03-01T08:41:43;17.27;;;14.65;;
18334;SDS011;9293;49.524;10.964;2023-03-01T08:44:13;20.55;;;15.80;;
18334;SDS011;9293;49.524;10.964;2023-03-01T08:46:44;17.38;;;14.45;;
18334;SDS011;9293;49.524;10.964;2023-03-01T08:51:48;22.33;;;15.18;;
18334;SDS011;9293;49.524;10.964;2023-03-01T08:54:18;18.77;;;14.07;;
18334;SDS011;9293;49.524;10.964;2023-03-01T08:56:49;18.40;;;15.48;;
18334;SDS011;9293;49.524;10.964;2023-03-01T08:59:17;18.48;;;14.90;;
18334;SDS011;9293;49.524;10.964;2023-03-01T09:04:16;17.85;;;14.85;;
18334;SDS011;9293;49.524;10.964;2023-03-01T09:06:44;18.88;;;14.18;;
18334;SDS011;9293;49.524;10.964;2023-03-01T09:09:16;19.38;;;14.75;;
18334;SDS011;9293;49.524;10.964;2023-03-01T09:11:45;18.80;;;13.82;;
18334;SDS011;9293;49.524;10.964;2023-03-01T09:14:14;17.08;;;13.82;;
18334;SDS011;9293;49.524;10.964;2023-03-01T09:16:42;16.45;;;13.90;;
18334;SDS011;9293;49.524;10.964;2023-03-01T09:19:10;16.10;;;13.23;;
18334;SDS011;9293;49.524;10.964;2023-03-01T09:21:38;20.10;;;15.02;;
18334;SDS011;9293;49.524;10.964;2023-03-01T09:24:11;18.92;;;14.63;;
18334;SDS011;9293;49.524;10.964;2023-03-01T09:26:41;16.70;;;14.63;;
18334;SDS011;9293;49.524;10.964;2023-03-01T09:29:09;19.02;;;15.35;;
18334;SDS011;9293;49.524;10.964;2023-03-01T09:31:37;17.48;;;14.55;;
18334;SDS011;9293;49.524;10.964;2023-03-01T09:34:06;18.80;;;14.32;;
18334;SDS011;9293;49.524;10.964;2023-03-01T09:36:35;21.27;;;14.60;;
18334;SDS011;9293;49.524;10.964;2023-03-01T09:39:03;15.80;;;13.57;;
18334;SDS011;9293;49.524;10.964;2023-03-01T09:41:43;17.23;;;13.90;;
18334;SDS011;9293;49.524;10.964;2023-03-01T09:47:26;17.10;;;13.05;;
18334;SDS011;9293;49.524;10.964;2023-03-01T09:55:45;16.08;;;14.20;;
18334;SDS011;9293;49.524;10.964;2023-03-01T10:01:26;16.23;;;14.27;;
18334;SDS011;9293;49.524;10.964;2023-03-01T10:04:27;15.55;;;13.20;;
18334;SDS011;9293;49.524;10.964;2023-03-01T10:09:40;17.02;;;14.43;;
18334;SDS011;9293;49.524;10.964;2023-03-01T10:12:14;18.58;;;12.82;;
18334;SDS011;9293;49.524;10.964;2023-03-01T10:14:55;15.00;;;13.40;;
18334;SDS011;9293;49.524;10.964;2023-03-01T10:17:36;16.50;;;13.43;;
18334;SDS011;9293;49.524;10.964;2023-03-01T10:22:44;14.82;;;13.02;;
18334;SDS011;9293;49.524;10.964;2023-03-01T10:25:29;16.02;;;13.98;;
18334;SDS011;9293;49.524;10.964;2023-03-01T10:28:02;15.07;;;13.52;;
18334;SDS011;9293;49.524;10.964;2023-03-01T10:30:44;15.65;;;12.98;;
18334;SDS011;9293;49.524;10.964;2023-03-01T10:33:23;15.27;;;13.68;;
18334;SDS011;9293;49.524;10.964;2023-03-01T10:35:54;17.30;;;13.25;;
18334;SDS011;9293;49.524;10.964;2023-03-01T10:40:55;15.70;;;12.90;;
18334;SDS011;9293;49.524;10.964;2023-03-01T10:43:48;15.35;;;13.13;;
18334;SDS011;9293;49.524;10.964;2023-03-01T10:46:26;14.70;;;13.07;;
18334;SDS011;9293;49.524;10.964;2023-03-01T10:51:43;15.95;;;13.65;;
18334;SDS011;9293;49.524;10.964;2023-03-01T10:56:53;15.27;;;13.65;;
18334;SDS011;9293;49.524;10.964;2023-03-01T11:05:39;15.38;;;13.20;;
18334;SDS011;9293;49.524;10.964;2023-03-01T11:07:53;16.45;;;13.57;;
18334;SDS011;9293;49.524;10.964;2023-03-01T11:10:28;19.00;;;14.60;;
18334;SDS011;9293;49.524;10.964;2023-03-01T11:13:17;18.10;;;15.10;;
18334;SDS011;9293;49.524;10.964;2023-03-01T11:16:03;17.38;;;15.57;;
18334;SDS011;9293;49.524;10.964;2023-03-01T11:18:34;16.17;;;13.23;;
18334;SDS011;9293;49.524;10.964;2023-03-01T11:21:15;18.25;;;12.93;;
18334;SDS011;9293;49.524;10.964;2023-03-01T11:23:46;15.70;;;13.65;;
18334;SDS011;9293;49.524;10.964;2023-03-01T11:26:16;16.80;;;12.70;;
18334;SDS011;9293;49.524;10.964;2023-03-01T11:28:48;14.55;;;12.65;;
18334;SDS011;9293;49.524;10.964;2023-03-01T11:31:21;17.00;;;14.45;;
18334;SDS011;9293;49.524;10.964;2023-03-01T11:34:03;18.75;;;14.93;;
18334;SDS011;9293;49.524;10.964;2023-03-01T11:36:58;21.08;;;15.02;;
18334;SDS011;9293;49.524;10.964;2023-03-01T11:39:43;18.48;;;14.30;;
18334;SDS011;9293;49.524;10.964;2023-03-01T11:42:38;15.60;;;13.20;;
18334;SDS011;9293;49.524;10.964;2023-03-01T11:45:27;16.48;;;12.68;;
18334;SDS011;9293;49.524;10.964;2023-03-01T11:52:03;18.20;;;12.85;;
18334;SDS011;9293;49.524;10.964;2023-03-01T11:57:13;18.20;;;13.20;;
18334;SDS011;9293;49.524;10.964;2023-03-01T12:05:20;15.30;;;11.63;;
18334;SDS011;9293;49.524;10.964;2023-03-01T12:08:02;16.88;;;10.98;;
18334;SDS011;9293;49.524;10.964;2023-03-01T12:10:53;16.00;;;12.65;;
18334;SDS011;9293;49.524;10.964;2023-03-01T12:13:52;19.58;;;13.52;;
18334;SDS011;9293;49.524;10.964;2023-03-01T12:24:56;17.77;;;13.10;;
18334;SDS011;9293;49.524;10.964;2023-03-01T12:30:30;20.75;;;13.05;;
18334;SDS011;9293;49.524;10.964;2023-03-01T12:38:46;19.23;;;13.07;;
18334;SDS011;9293;49.524;10.964;2023-03-01T12:49:50;14.85;;;11.45;;
18334;SDS011;9293;49.524;10.964;2023-03-01T12:52:26;17.08;;;12.25;;
18334;SDS011;9293;49.524;10.964;2023-03-01T12:54:55;16.50;;;13.02;;
18334;SDS011;9293;49.524;10.964;2023-03-01T12:57:47;14.60;;;11.80;;
18334;SDS011;9293;49.524;10.964;2023-03-01T13:00:36;17.65;;;11.35;;
18334;SDS011;9293;49.524;10.964;2023-03-01T13:03:28;16.33;;;12.02;;
18334;SDS011;9293;49.524;10.964;2023-03-01T13:09:28;16.55;;;12.40;;
18334;SDS011;9293;49.524;10.964;2023-03-01T13:17:54;18.15;;;12.57;;
18334;SDS011;9293;49.524;10.964;2023-03-01T13:20:55;15.05;;;12.13;;
18334;SDS011;9293;49.524;10.964;2023-03-01T13:23:26;17.60;;;12.98;;
18334;SDS011;9293;49.524;10.964;2023-03-01T13:28:38;16.95;;;13.55;;
18334;SDS011;9293;49.524;10.964;2023-03-01T13:33:48;20.25;;;14.25;;
18334;SDS011;9293;49.524;10.964;2023-03-01T13:39:04;15.65;;;12.00;;
18334;SDS011;9293;49.524;10.964;2023-03-01T13:41:54;16.23;;;12.45;;
18334;SDS011;9293;49.524;10.964;2023-03-01T13:47:22;16.38;;;12.95;;
18334;SDS011;9293;49.524;10.964;2023-03-01T13:49:55;18.40;;;13.00;;
18334;SDS011;9293;49.524;10.964;2023-03-01T13:54:59;18.58;;;12.63;;
18334;SDS011;9293;49.524;10.964;2023-03-01T13:57:34;18.52;;;13.07;;
18334;SDS011;9293;49.524;10.964;2023-03-01T14:00:06;17.20;;;12.38;;
18334;SDS011;9293;49.524;10.964;2023-03-01T14:03:01;16.95;;;12.63;;
18334;SDS011;9293;49.524;10.964;2023-03-01T14:05:32;17.73;;;12.85;;
18334;SDS011;9293;49.524;10.964;2023-03-01T14:08:02;15.68;;;12.48;;
18334;SDS011;9293;49.524;10.964;2023-03-01T14:19:18;22.02;;;14.43;;
18334;SDS011;9293;49.524;10.964;2023-03-01T14:24:56;16.90;;;11.55;;
18334;SDS011;9293;49.524;10.964;2023-03-01T14:27:33;18.80;;;11.98;;
18334;SDS011;9293;49.524;10.964;2023-03-01T14:30:18;16.73;;;12.95;;
18334;SDS011;9293;49.524;10.964;2023-03-01T14:32:57;19.25;;;13.60;;
18334;SDS011;9293;49.524;10.964;2023-03-01T14:35:27;16.65;;;12.60;;
18334;SDS011;9293;49.524;10.964;2023-03-01T14:38:03;16.33;;;13.00;;
18334;SDS011;9293;49.524;10.964;2023-03-01T14:40:50;16.50;;;13.15;;
18334;SDS011;9293;49.524;10.964;2023-03-01T14:43:32;16.58;;;13.45;;
18334;SDS011;9293;49.524;10.964;2023-03-01T14:46:25;16.73;;;13.02;;
18334;SDS011;9293;49.524;10.964;2023-03-01T14:49:24;16.17;;;12.85;;
18334;SDS011;9293;49.524;10.964;2023-03-01T14:52:18;17.13;;;12.50;;
18334;SDS011;9293;49.524;10.964;2023-03-01T14:54:58;17.77;;;13.05;;
18334;SDS011;9293;49.524;10.964;2023-03-01T14:57:32;17.35;;;12.75;;
18334;SDS011;9293;49.524;10.964;2023-03-01T15:02:42;17.60;;;12.35;;
18334;SDS011;9293;49.524;10.964;2023-03-01T15:05:13;16.48;;;12.32;;
18334;SDS011;9293;49.524;10.964;2023-03-01T15:07:43;17.40;;;12.38;;
18334;SDS011;9293;49.524;10.964;2023-03-01T15:10:24;19.13;;;11.93;;
18334;SDS011;9293;49.524;10.964;2023-03-01T15:12:58;18.23;;;11.80;;
18334;SDS011;9293;49.524;10.964;2023-03-01T15:15:42;15.32;;;11.77;;
18334;SDS011;9293;49.524;10.964;2023-03-01T15:18:21;15.55;;;10.68;;
18334;SDS011;9293;49.524;10.964;2023-03-01T15:21:05;15.73;;;11.35;;
18334;SDS011;9293;49.524;10.964;2023-03-01T15:23:39;14.77;;;10.52;;
18334;SDS011;9293;49.524;10.964;2023-03-01T15:26:21;16.13;;;11.43;;
18334;SDS011;9293;49.524;10.964;2023-03-01T15:29:15;13.85;;;10.18;;
18334;SDS011;9293;49.524;10.964;2023-03-01T15:31:59;14.60;;;10.80;;
18334;SDS011;9293;49.524;10.964;2023-03-01T15:34:35;12.30;;;9.95;;
18334;SDS011;9293;49.524;10.964;2023-03-01T15:37:05;15.40;;;10.23;;
18334;SDS011;9293;49.524;10.964;2023-03-01T15:39:55;13.27;;;10.20;;
18334;SDS011;9293;49.524;10.964;2023-03-01T15:47:48;16.63;;;9.73;;
18334;SDS011;9293;49.524;10.964;2023-03-01T15:50:22;14.10;;;10.17;;
18334;SDS011;9293;49.524;10.964;2023-03-01T15:52:51;17.13;;;10.70;;
18334;SDS011;9293;49.524;10.964;2023-03-01T15:55:20;15.15;;;11.32;;
18334;SDS011;9293;49.524;10.964;2023-03-01T15:57:57;14.82;;;10.02;;
18334;SDS011;9293;49.524;10.964;2023-03-01T16:00:30;16.20;;;10.13;;
18334;SDS011;9293;49.524;10.964;2023-03-01T16:02:59;12.82;;;9.38;;
18334;SDS011;9293;49.524;10.964;2023-03-01T16:05:28;13.82;;;9.85;;
18334;SDS011;9293;49.524;10.964;2023-03-01T16:08:00;14.88;;;10.57;;
18334;SDS011;9293;49.524;10.964;2023-03-01T16:10:29;15.77;;;10.52;;
18334;SDS011;9293;49.524;10.964;2023-03-01T16:12:58;15.02;;;10.65;;
18334;SDS011;9293;49.524;10.964;2023-03-01T16:15:29;14.63;;;10.10;;
18334;SDS011;9293;49.524;10.964;2023-03-01T16:17:59;16.65;;;10.05;;
18334;SDS011;9293;49.524;10.964;2023-03-01T16:20:28;16.55;;;10.98;;
18334;SDS011;9293;49.524;10.964;2023-03-01T16:23:04;14.68;;;10.93;;
18334;SDS011;9293;49.524;10.964;2023-03-01T16:25:33;16.23;;;11.40;;
18334;SDS011;9293;49.524;10.964;2023-03-01T16:28:03;18.20;;;12.02;;
18334;SDS011;9293;49.524;10.964;2023-03-01T16:30:38;20.52;;;10.85;;
18334;SDS011;9293;49.524;10.964;2023-03-01T16:33:07;15.38;;;11.35;;
18334;SDS011;9293;49.524;10.964;2023-03-01T16:35:56;16.83;;;11.73;;
18334;SDS011;9293;49.524;10.964;2023-03-01T16:38:25;16.17;;;11.48;;
18334;SDS011;9293;49.524;10.964;2023-03-01T16:40:56;17.38;;;11.48;;
18334;SDS011;9293;49.524;10.964;2023-03-01T16:43:24;17.33;;;11.80;;
18334;SDS011;9293;49.524;10.964;2023-03-01T16:45:57;18.02;;;12.75;;
18334;SDS011;9293;49.524;10.964;2023-03-01T16:48:27;18.98;;;12.27;;
18334;SDS011;9293;49.524;10.964;2023-03-01T16:50:56;20.60;;;13.77;;
18334;SDS011;9293;49.524;10.964;2023-03-01T16:53:28;19.88;;;13.73;;
18334;SDS011;9293;49.524;10.964;2023-03-01T16:56:01;18.70;;;12.40;;
18334;SDS011;9293;49.524;10.964;2023-03-01T16:58:30;21.88;;;14.07;;
18334;SDS011;9293;49.524;10.964;2023-03-01T17:01:06;19.67;;;13.45;;
18334;SDS011;9293;49.524;10.964;2023-03-01T17:03:36;22.65;;;13.98;;
18334;SDS011;9293;49.524;10.964;2023-03-01T17:06:07;19.33;;;13.63;;
18334;SDS011;9293;49.524;10.964;2023-03-01T17:08:39;20.75;;;13.38;;
18334;SDS011;9293;49.524;10.964;2023-03-01T17:11:09;22.02;;;14.77;;